sensor_id;sensor_type;location;lat;lon;timestamp;temperature;humidity
44729;DHT22;30457;53.590;9.922;2023-02-18T00:02:32;10.60;58.40
44729;DHT22;30457;53.590;9.922;2023-02-18T00:06:58;10.70;58.50
44729;DHT22;30457;53.590;9.922;2023-02-18T00:11:25;10.60;58.50
44729;DHT22;30457;53.590;9.922;2023-02-18T00:15:51;10.60;58.50
44729;DHT22;30457;53.590;9.922;2023-02-18T00:20:17;10.60;58.50
44729;DHT22;30457;53.590;9.922;2023-02-18T00:24:42;10.60;58.50
44729;DHT22;30457;53.590;9.922;2023-02-18T00:29:08;10.60;58.50
44729;DHT22;30457;53.590;9.922;2023-02-18T00:33:34;10.60;58.50
44729;DHT22;30457;53.590;9.922;2023-02-18T00:37:59;10.60;58.40
44729;DHT22;30457;53.590;9.922;2023-02-18T00:42:25;10.60;58.40
44729;DHT22;30457;53.590;9.922;2023-02-18T00:46:52;10.60;58.40
44729;DHT22;30457;53.590;9.922;2023-02-18T00:51:17;10.60;58.50
44729;DHT22;30457;53.590;9.922;2023-02-18T00:55:44;10.60;58.40
44729;DHT22;30457;53.590;9.922;2023-02-18T01:00:12;10.60;58.50
44729;DHT22;30457;53.590;9.922;2023-02-18T01:04:38;10.60;58.40
44729;DHT22;30457;53.590;9.922;2023-02-18T01:09:04;10.60;58.60
44729;DHT22;30457;53.590;9.922;2023-02-18T01:13:30;10.50;58.50
44729;DHT22;30457;53.590;9.922;2023-02-18T01:17:56;10.50;58.60
44729;DHT22;30457;53.590;9.922;2023-02-18T01:22:22;10.50;58.50
44729;DHT22;30457;53.590;9.922;2023-02-18T01:26:48;10.50;58.60
44729;DHT22;30457;53.590;9.922;2023-02-18T01:31:14;10.50;58.60
44729;DHT22;30457;53.590;9.922;2023-02-18T01:35:40;10.50;58.70
44729;DHT22;30457;53.590;9.922;2023-02-18T01:40:07;10.50;58.70
44729;DHT22;30457;53.590;9.922;2023-02-18T01:44:33;10.60;58.70
44729;DHT22;30457;53.590;9.922;2023-02-18T01:49:00;10.50;58.60
44729;DHT22;30457;53.590;9.922;2023-02-18T01:53:31;10.50;58.60
44729;DHT22;30457;53.590;9.922;2023-02-18T01:57:58;10.50;58.60
44729;DHT22;30457;53.590;9.922;2023-02-18T02:02:27;10.50;58.60
44729;DHT22;30457;53.590;9.922;2023-02-18T02:06:53;10.50;58.80
44729;DHT22;30457;53.590;9.922;2023-02-18T02:16:33;10.50;58.90
44729;DHT22;30457;53.590;9.922;2023-02-18T02:21:12;10.50;58.80
44729;DHT22;30457;53.590;9.922;2023-02-18T02:26:44;10.50;58.80
44729;DHT22;30457;53.590;9.922;2023-02-18T02:36:21;10.40;58.80
44729;DHT22;30457;53.590;9.922;2023-02-18T02:40:45;10.40;58.80
44729;DHT22;30457;53.590;9.922;2023-02-18T02:50:21;10.40;58.70
44729;DHT22;30457;53.590;9.922;2023-02-18T02:54:51;10.40;58.70
44729;DHT22;30457;53.590;9.922;2023-02-18T02:59:21;10.40;58.80
44729;DHT22;30457;53.590;9.922;2023-02-18T03:04:00;10.40;58.80
44729;DHT22;30457;53.590;9.922;2023-02-18T03:22:44;10.50;58.90
44729;DHT22;30457;53.590;9.922;2023-02-18T03:31:45;10.50;58.80
44729;DHT22;30457;53.590;9.922;2023-02-18T03:36:12;10.50;58.90
44729;DHT22;30457;53.590;9.922;2023-02-18T03:40:37;10.50;58.90
44729;DHT22;30457;53.590;9.922;2023-02-18T03:45:03;10.50;59.00
44729;DHT22;30457;53.590;9.922;2023-02-18T03:49:29;10.50;59.50
44729;DHT22;30457;53.590;9.922;2023-02-18T03:53:55;10.50;58.80
44729;DHT22;30457;53.590;9.922;2023-02-18T03:58:20;10.60;58.70
44729;DHT22;30457;53.590;9.922;2023-02-18T04:02:46;10.60;58.70
44729;DHT22;30457;53.590;9.922;2023-02-18T04:07:12;10.60;58.60
44729;DHT22;30457;53.590;9.922;2023-02-18T04:11:38;10.60;58.40
44729;DHT22;30457;53.590;9.922;2023-02-18T04:16:04;10.60;58.50
44729;DHT22;30457;53.590;9.922;2023-02-18T04:20:30;10.60;58.70
44729;DHT22;30457;53.590;9.922;2023-02-18T04:24:56;10.60;58.80
44729;DHT22;30457;53.590;9.922;2023-02-18T04:29:21;10.60;58.90
44729;DHT22;30457;53.590;9.922;2023-02-18T04:33:47;10.60;59.00
44729;DHT22;30457;53.590;9.922;2023-02-18T04:38:13;10.60;59.00
44729;DHT22;30457;53.590;9.922;2023-02-18T04:42:38;10.60;59.10
44729;DHT22;30457;53.590;9.922;2023-02-18T04:47:05;10.60;59.20
44729;DHT22;30457;53.590;9.922;2023-02-18T04:51:31;10.50;59.20
44729;DHT22;30457;53.590;9.922;2023-02-18T04:55:56;10.50;59.20
44729;DHT22;30457;53.590;9.922;2023-02-18T05:00:22;10.50;59.30
44729;DHT22;30457;53.590;9.922;2023-02-18T05:04:47;10.50;59.30
44729;DHT22;30457;53.590;9.922;2023-02-18T05:09:13;10.50;59.30
44729;DHT22;30457;53.590;9.922;2023-02-18T05:13:39;10.50;59.50
44729;DHT22;30457;53.590;9.922;2023-02-18T05:18:05;10.40;59.60
44729;DHT22;30457;53.590;9.922;2023-02-18T05:22:31;10.40;59.70
44729;DHT22;30457;53.590;9.922;2023-02-18T05:26:57;10.40;59.80
44729;DHT22;30457;53.590;9.922;2023-02-18T05:31:22;10.40;59.90
44729;DHT22;30457;53.590;9.922;2023-02-18T05:35:48;10.40;60.00
44729;DHT22;30457;53.590;9.922;2023-02-18T05:40:14;10.40;60.20
44729;DHT22;30457;53.590;9.922;2023-02-18T05:44:40;10.40;60.40
44729;DHT22;30457;53.590;9.922;2023-02-18T05:49:05;10.40;60.50
44729;DHT22;30457;53.590;9.922;2023-02-18T05:53:31;10.40;60.70
44729;DHT22;30457;53.590;9.922;2023-02-18T05:57:56;10.30;60.70
44729;DHT22;30457;53.590;9.922;2023-02-18T06:02:22;10.30;61.10
44729;DHT22;30457;53.590;9.922;2023-02-18T06:06:47;10.30;61.00
44729;DHT22;30457;53.590;9.922;2023-02-18T06:11:13;10.30;61.00
44729;DHT22;30457;53.590;9.922;2023-02-18T06:15:39;10.30;61.20
44729;DHT22;30457;53.590;9.922;2023-02-18T06:20:05;10.20;61.20
44729;DHT22;30457;53.590;9.922;2023-02-18T06:24:31;10.20;61.20
44729;DHT22;30457;53.590;9.922;2023-02-18T06:28:56;10.20;61.30
44729;DHT22;30457;53.590;9.922;2023-02-18T06:33:22;10.20;61.30
44729;DHT22;30457;53.590;9.922;2023-02-18T06:37:47;10.20;61.30
44729;DHT22;30457;53.590;9.922;2023-02-18T06:42:13;10.20;61.60
44729;DHT22;30457;53.590;9.922;2023-02-18T06:46:38;10.10;61.50
44729;DHT22;30457;53.590;9.922;2023-02-18T06:51:04;10.10;61.60
44729;DHT22;30457;53.590;9.922;2023-02-18T06:55:30;10.10;61.70
44729;DHT22;30457;53.590;9.922;2023-02-18T06:59:56;10.10;61.80
44729;DHT22;30457;53.590;9.922;2023-02-18T07:04:21;10.20;61.90
44729;DHT22;30457;53.590;9.922;2023-02-18T07:08:47;10.20;62.00
44729;DHT22;30457;53.590;9.922;2023-02-18T07:13:14;10.20;62.10
44729;DHT22;30457;53.590;9.922;2023-02-18T07:17:39;10.20;62.20
44729;DHT22;30457;53.590;9.922;2023-02-18T07:22:05;10.30;62.20
44729;DHT22;30457;53.590;9.922;2023-02-18T07:26:31;10.30;62.10
44729;DHT22;30457;53.590;9.922;2023-02-18T07:30:56;10.30;62.00
44729;DHT22;30457;53.590;9.922;2023-02-18T07:35:22;10.30;62.00
44729;DHT22;30457;53.590;9.922;2023-02-18T07:39:47;10.40;62.90
44729;DHT22;30457;53.590;9.922;2023-02-18T07:44:13;10.40;62.20
44729;DHT22;30457;53.590;9.922;2023-02-18T07:48:39;10.40;62.30
44729;DHT22;30457;53.590;9.922;2023-02-18T07:53:05;10.40;62.40
44729;DHT22;30457;53.590;9.922;2023-02-18T07:57:31;10.40;62.40
44729;DHT22;30457;53.590;9.922;2023-02-18T08:01:56;10.50;62.40
44729;DHT22;30457;53.590;9.922;2023-02-18T08:06:27;10.50;62.40
44729;DHT22;30457;53.590;9.922;2023-02-18T08:10:56;10.50;62.50
44729;DHT22;30457;53.590;9.922;2023-02-18T08:15:22;10.50;62.40
44729;DHT22;30457;53.590;9.922;2023-02-18T08:19:47;10.60;62.40
44729;DHT22;30457;53.590;9.922;2023-02-18T08:24:13;10.60;62.40
44729;DHT22;30457;53.590;9.922;2023-02-18T08:28:38;10.60;62.50
44729;DHT22;30457;53.590;9.922;2023-02-18T08:33:04;10.60;62.40
44729;DHT22;30457;53.590;9.922;2023-02-18T08:37:30;10.70;62.40
44729;DHT22;30457;53.590;9.922;2023-02-18T08:41:56;10.70;62.30
44729;DHT22;30457;53.590;9.922;2023-02-18T08:46:21;10.70;62.30
44729;DHT22;30457;53.590;9.922;2023-02-18T08:50:47;10.70;62.30
44729;DHT22;30457;53.590;9.922;2023-02-18T08:55:13;10.70;62.30
44729;DHT22;30457;53.590;9.922;2023-02-18T08:59:39;10.70;62.50
44729;DHT22;30457;53.590;9.922;2023-02-18T09:04:04;10.80;62.90
44729;DHT22;30457;53.590;9.922;2023-02-18T09:08:30;10.80;62.90
44729;DHT22;30457;53.590;9.922;2023-02-18T09:12:55;10.80;63.00
44729;DHT22;30457;53.590;9.922;2023-02-18T09:17:21;10.90;63.10
44729;DHT22;30457;53.590;9.922;2023-02-18T09:21:47;10.90;63.30
44729;DHT22;30457;53.590;9.922;2023-02-18T09:26:14;10.90;63.30
44729;DHT22;30457;53.590;9.922;2023-02-18T09:30:39;11.00;63.30
44729;DHT22;30457;53.590;9.922;2023-02-18T09:35:05;11.10;63.30
44729;DHT22;30457;53.590;9.922;2023-02-18T09:39:31;11.00;63.30
44729;DHT22;30457;53.590;9.922;2023-02-18T09:44:13;11.00;63.30
44729;DHT22;30457;53.590;9.922;2023-02-18T09:48:43;11.10;63.30
44729;DHT22;30457;53.590;9.922;2023-02-18T09:53:11;11.10;63.50
44729;DHT22;30457;53.590;9.922;2023-02-18T09:57:40;11.10;63.50
44729;DHT22;30457;53.590;9.922;2023-02-18T10:02:11;11.20;63.70
44729;DHT22;30457;53.590;9.922;2023-02-18T10:06:42;11.20;63.70
44729;DHT22;30457;53.590;9.922;2023-02-18T10:11:21;11.20;63.70
44729;DHT22;30457;53.590;9.922;2023-02-18T10:15:49;11.20;63.90
44729;DHT22;30457;53.590;9.922;2023-02-18T10:20:22;11.20;63.70
44729;DHT22;30457;53.590;9.922;2023-02-18T10:24:50;11.30;64.10
44729;DHT22;30457;53.590;9.922;2023-02-18T10:29:18;11.30;64.10
44729;DHT22;30457;53.590;9.922;2023-02-18T10:33:50;11.30;64.20
44729;DHT22;30457;53.590;9.922;2023-02-18T10:44:12;11.50;65.00
44729;DHT22;30457;53.590;9.922;2023-02-18T10:53:35;11.50;64.60
44729;DHT22;30457;53.590;9.922;2023-02-18T10:58:01;11.60;65.50
44729;DHT22;30457;53.590;9.922;2023-02-18T11:02:30;11.70;65.30
44729;DHT22;30457;53.590;9.922;2023-02-18T11:07:03;11.70;65.40
44729;DHT22;30457;53.590;9.922;2023-02-18T11:11:38;11.80;65.50
44729;DHT22;30457;53.590;9.922;2023-02-18T11:16:05;11.80;65.30
44729;DHT22;30457;53.590;9.922;2023-02-18T11:20:34;11.90;65.30
44729;DHT22;30457;53.590;9.922;2023-02-18T11:25:03;11.90;65.10
44729;DHT22;30457;53.590;9.922;2023-02-18T11:29:30;12.00;65.30
44729;DHT22;30457;53.590;9.922;2023-02-18T11:33:59;12.00;65.60
44729;DHT22;30457;53.590;9.922;2023-02-18T11:38:28;12.10;65.90
44729;DHT22;30457;53.590;9.922;2023-02-18T11:47:36;12.20;67.10
44729;DHT22;30457;53.590;9.922;2023-02-18T11:52:23;12.30;67.90
44729;DHT22;30457;53.590;9.922;2023-02-18T11:57:13;12.40;69.70
44729;DHT22;30457;53.590;9.922;2023-02-18T12:01:48;12.60;69.80
44729;DHT22;30457;53.590;9.922;2023-02-18T12:06:24;12.70;70.30
44729;DHT22;30457;53.590;9.922;2023-02-18T12:11:00;12.70;69.40
44729;DHT22;30457;53.590;9.922;2023-02-18T12:21:34;12.90;70.00
44729;DHT22;30457;53.590;9.922;2023-02-18T12:25:43;12.90;69.20
44729;DHT22;30457;53.590;9.922;2023-02-18T12:35:32;13.00;69.00
44729;DHT22;30457;53.590;9.922;2023-02-18T13:04:11;12.90;68.80
44729;DHT22;30457;53.590;9.922;2023-02-18T13:08:57;12.90;68.60
44729;DHT22;30457;53.590;9.922;2023-02-18T13:13:32;12.90;68.70
44729;DHT22;30457;53.590;9.922;2023-02-18T13:18:00;12.90;68.50
44729;DHT22;30457;53.590;9.922;2023-02-18T13:22:29;12.90;68.50
44729;DHT22;30457;53.590;9.922;2023-02-18T13:27:01;12.90;68.30
44729;DHT22;30457;53.590;9.922;2023-02-18T13:40:54;12.90;68.40
44729;DHT22;30457;53.590;9.922;2023-02-18T13:45:27;12.90;68.40
44729;DHT22;30457;53.590;9.922;2023-02-18T13:49:53;12.90;68.10
44729;DHT22;30457;53.590;9.922;2023-02-18T13:59:19;12.80;68.20
44729;DHT22;30457;53.590;9.922;2023-02-18T14:08:35;12.80;67.80
44729;DHT22;30457;53.590;9.922;2023-02-18T14:17:34;12.80;67.40
44729;DHT22;30457;53.590;9.922;2023-02-18T14:26:52;12.70;66.50
44729;DHT22;30457;53.590;9.922;2023-02-18T14:31:41;12.60;65.60
44729;DHT22;30457;53.590;9.922;2023-02-18T14:45:32;12.30;63.50
44729;DHT22;30457;53.590;9.922;2023-02-18T14:50:09;12.20;63.70
44729;DHT22;30457;53.590;9.922;2023-02-18T14:54:35;12.10;63.10
44729;DHT22;30457;53.590;9.922;2023-02-18T14:59:01;12.00;62.70
44729;DHT22;30457;53.590;9.922;2023-02-18T15:03:27;11.90;63.40
44729;DHT22;30457;53.590;9.922;2023-02-18T15:07:59;11.90;62.50
44729;DHT22;30457;53.590;9.922;2023-02-18T15:12:25;11.80;62.00
44729;DHT22;30457;53.590;9.922;2023-02-18T15:16:51;11.70;61.90
44729;DHT22;30457;53.590;9.922;2023-02-18T15:25:50;11.60;61.70
44729;DHT22;30457;53.590;9.922;2023-02-18T15:30:23;11.50;61.70
44729;DHT22;30457;53.590;9.922;2023-02-18T15:34:51;11.50;60.90
44729;DHT22;30457;53.590;9.922;2023-02-18T15:39:16;11.40;61.40
44729;DHT22;30457;53.590;9.922;2023-02-18T15:43:59;11.30;61.40
44729;DHT22;30457;53.590;9.922;2023-02-18T15:48:44;11.30;62.60
44729;DHT22;30457;53.590;9.922;2023-02-18T15:53:15;11.30;61.90
44729;DHT22;30457;53.590;9.922;2023-02-18T15:57:42;11.20;61.70
44729;DHT22;30457;53.590;9.922;2023-02-18T16:06:38;11.20;61.30
44729;DHT22;30457;53.590;9.922;2023-02-18T16:11:10;11.10;60.80
44729;DHT22;30457;53.590;9.922;2023-02-18T16:15:38;11.10;61.20
44729;DHT22;30457;53.590;9.922;2023-02-18T16:20:38;11.00;61.20
44729;DHT22;30457;53.590;9.922;2023-02-18T16:29:41;10.90;61.20
44729;DHT22;30457;53.590;9.922;2023-02-18T16:34:07;10.90;61.30
44729;DHT22;30457;53.590;9.922;2023-02-18T16:38:33;10.80;61.50
44729;DHT22;30457;53.590;9.922;2023-02-18T16:43:10;10.80;61.70
44729;DHT22;30457;53.590;9.922;2023-02-18T16:47:36;10.70;61.70
44729;DHT22;30457;53.590;9.922;2023-02-18T16:52:06;10.70;61.80
44729;DHT22;30457;53.590;9.922;2023-02-18T16:56:32;10.70;61.80
44729;DHT22;30457;53.590;9.922;2023-02-18T17:01:00;10.60;61.60
44729;DHT22;30457;53.590;9.922;2023-02-18T17:05:29;10.60;61.60
44729;DHT22;30457;53.590;9.922;2023-02-18T17:09:54;10.50;61.50
44729;DHT22;30457;53.590;9.922;2023-02-18T17:14:21;10.50;61.60
44729;DHT22;30457;53.590;9.922;2023-02-18T17:18:47;10.40;61.60
44729;DHT22;30457;53.590;9.922;2023-02-18T17:23:17;10.30;61.70
44729;DHT22;30457;53.590;9.922;2023-02-18T17:27:43;10.30;61.80
44729;DHT22;30457;53.590;9.922;2023-02-18T17:32:10;10.30;61.90
44729;DHT22;30457;53.590;9.922;2023-02-18T17:36:36;10.20;62.10
44729;DHT22;30457;53.590;9.922;2023-02-18T17:41:05;10.20;62.40
44729;DHT22;30457;53.590;9.922;2023-02-18T17:45:36;10.20;62.50
44729;DHT22;30457;53.590;9.922;2023-02-18T17:50:04;10.20;62.70
44729;DHT22;30457;53.590;9.922;2023-02-18T17:54:30;10.10;62.70
44729;DHT22;30457;53.590;9.922;2023-02-18T17:58:55;10.10;62.60
44729;DHT22;30457;53.590;9.922;2023-02-18T18:03:21;10.10;62.50
44729;DHT22;30457;53.590;9.922;2023-02-18T18:07:48;10.10;62.50
44729;DHT22;30457;53.590;9.922;2023-02-18T18:12:15;10.00;62.40
44729;DHT22;30457;53.590;9.922;2023-02-18T18:16:40;10.00;62.50
44729;DHT22;30457;53.590;9.922;2023-02-18T18:21:21;9.90;62.50
44729;DHT22;30457;53.590;9.922;2023-02-18T18:25:50;9.90;62.60
44729;DHT22;30457;53.590;9.922;2023-02-18T18:30:16;9.90;62.70
44729;DHT22;30457;53.590;9.922;2023-02-18T18:34:41;9.80;62.80
44729;DHT22;30457;53.590;9.922;2023-02-18T18:39:08;9.80;63.10
44729;DHT22;30457;53.590;9.922;2023-02-18T18:43:34;9.80;63.10
44729;DHT22;30457;53.590;9.922;2023-02-18T18:48:03;9.80;63.00
44729;DHT22;30457;53.590;9.922;2023-02-18T18:52:29;9.80;62.90
44729;DHT22;30457;53.590;9.922;2023-02-18T18:56:55;9.70;62.80
44729;DHT22;30457;53.590;9.922;2023-02-18T19:01:21;9.70;62.80
44729;DHT22;30457;53.590;9.922;2023-02-18T19:05:48;9.70;62.80
44729;DHT22;30457;53.590;9.922;2023-02-18T19:10:14;9.60;62.70
44729;DHT22;30457;53.590;9.922;2023-02-18T19:14:40;9.50;62.70
44729;DHT22;30457;53.590;9.922;2023-02-18T19:19:05;9.50;62.80
44729;DHT22;30457;53.590;9.922;2023-02-18T19:23:34;9.40;62.90
44729;DHT22;30457;53.590;9.922;2023-02-18T19:28:02;9.40;63.00
44729;DHT22;30457;53.590;9.922;2023-02-18T19:32:27;9.40;63.50
44729;DHT22;30457;53.590;9.922;2023-02-18T19:36:53;9.30;63.10
44729;DHT22;30457;53.590;9.922;2023-02-18T19:41:20;9.20;63.00
44729;DHT22;30457;53.590;9.922;2023-02-18T19:45:46;9.20;63.00
44729;DHT22;30457;53.590;9.922;2023-02-18T19:50:14;9.20;63.00
44729;DHT22;30457;53.590;9.922;2023-02-18T19:54:40;9.10;63.00
44729;DHT22;30457;53.590;9.922;2023-02-18T19:59:05;9.10;63.00
44729;DHT22;30457;53.590;9.922;2023-02-18T20:03:31;9.00;63.10
44729;DHT22;30457;53.590;9.922;2023-02-18T20:07:57;9.00;63.30
44729;DHT22;30457;53.590;9.922;2023-02-18T20:12:23;9.00;63.20
44729;DHT22;30457;53.590;9.922;2023-02-18T20:16:48;8.90;63.10
44729;DHT22;30457;53.590;9.922;2023-02-18T20:21:14;8.90;63.20
44729;DHT22;30457;53.590;9.922;2023-02-18T20:25:40;8.90;63.20
44729;DHT22;30457;53.590;9.922;2023-02-18T20:30:06;8.80;63.20
44729;DHT22;30457;53.590;9.922;2023-02-18T20:34:32;8.80;63.30
44729;DHT22;30457;53.590;9.922;2023-02-18T20:38:58;8.80;63.30
44729;DHT22;30457;53.590;9.922;2023-02-18T20:43:23;8.70;63.30
44729;DHT22;30457;53.590;9.922;2023-02-18T20:47:50;8.70;63.40
44729;DHT22;30457;53.590;9.922;2023-02-18T20:52:16;8.70;63.50
44729;DHT22;30457;53.590;9.922;2023-02-18T20:56:42;8.60;63.50
44729;DHT22;30457;53.590;9.922;2023-02-18T21:01:10;8.60;63.60
44729;DHT22;30457;53.590;9.922;2023-02-18T21:05:36;8.50;63.70
44729;DHT22;30457;53.590;9.922;2023-02-18T21:10:02;8.50;63.90
44729;DHT22;30457;53.590;9.922;2023-02-18T21:14:28;8.50;64.10
44729;DHT22;30457;53.590;9.922;2023-02-18T21:18:54;8.50;64.20
44729;DHT22;30457;53.590;9.922;2023-02-18T21:23:19;8.50;64.30
44729;DHT22;30457;53.590;9.922;2023-02-18T21:27:45;8.50;64.40
44729;DHT22;30457;53.590;9.922;2023-02-18T21:32:11;8.50;64.50
44729;DHT22;30457;53.590;9.922;2023-02-18T21:36:37;8.50;64.40
44729;DHT22;30457;53.590;9.922;2023-02-18T21:41:04;8.50;64.40
44729;DHT22;30457;53.590;9.922;2023-02-18T21:45:29;8.50;64.40
44729;DHT22;30457;53.590;9.922;2023-02-18T21:49:55;8.50;64.60
44729;DHT22;30457;53.590;9.922;2023-02-18T21:54:23;8.50;64.60
44729;DHT22;30457;53.590;9.922;2023-02-18T21:58:49;8.50;64.70
44729;DHT22;30457;53.590;9.922;2023-02-18T22:03:14;8.50;64.70
44729;DHT22;30457;53.590;9.922;2023-02-18T22:07:40;8.50;65.40
44729;DHT22;30457;53.590;9.922;2023-02-18T22:12:06;8.50;64.50
44729;DHT22;30457;53.590;9.922;2023-02-18T22:16:31;8.60;64.60
44729;DHT22;30457;53.590;9.922;2023-02-18T22:20:57;8.60;64.70
44729;DHT22;30457;53.590;9.922;2023-02-18T22:25:23;8.60;64.80
44729;DHT22;30457;53.590;9.922;2023-02-18T22:29:49;8.60;64.70
44729;DHT22;30457;53.590;9.922;2023-02-18T22:34:15;8.60;64.60
44729;DHT22;30457;53.590;9.922;2023-02-18T22:38:40;8.60;64.50
44729;DHT22;30457;53.590;9.922;2023-02-18T22:43:06;8.60;64.40
44729;DHT22;30457;53.590;9.922;2023-02-18T22:47:32;8.60;64.60
44729;DHT22;30457;53.590;9.922;2023-02-18T22:51:57;8.70;64.60
44729;DHT22;30457;53.590;9.922;2023-02-18T22:56:24;8.70;64.50
44729;DHT22;30457;53.590;9.922;2023-02-18T23:00:50;8.70;64.60
44729;DHT22;30457;53.590;9.922;2023-02-18T23:05:16;8.70;64.50
44729;DHT22;30457;53.590;9.922;2023-02-18T23:09:41;8.70;64.50
44729;DHT22;30457;53.590;9.922;2023-02-18T23:14:07;8.70;64.40
44729;DHT22;30457;53.590;9.922;2023-02-18T23:18:42;8.70;64.20
44729;DHT22;30457;53.590;9.922;2023-02-18T23:23:07;8.70;64.30
44729;DHT22;30457;53.590;9.922;2023-02-18T23:27:33;8.70;64.40
44729;DHT22;30457;53.590;9.922;2023-02-18T23:31:59;8.80;64.60
44729;DHT22;30457;53.590;9.922;2023-02-18T23:36:28;8.80;64.50
44729;DHT22;30457;53.590;9.922;2023-02-18T23:40:54;8.80;64.30
44729;DHT22;30457;53.590;9.922;2023-02-18T23:45:19;8.80;64.20
44729;DHT22;30457;53.590;9.922;2023-02-18T23:49:45;8.80;64.00
44729;DHT22;30457;53.590;9.922;2023-02-18T23:54:11;8.90;64.00
44729;DHT22;30457;53.590;9.922;2023-02-18T23:58:37;8.90;64.00
